Time;durP1;ratioP1;P1;durP2;ratioP2;P2;SDS_P1;SDS_P2;PMS_P1;PMS_P2;Temp;Humidity;BMP_temperature;BMP_pressure;BME280_temperature;BME280_humidity;BME280_pressure;Samples;Min_cycle;Max_cycle;Signal;HPM_P1;HPM_P2
2023/08/06 00:00:09;;;;;;;1.33;1.17;;;20.50;62.60;;;;;;6172131;23;20535;-68
2023/08/06 00:02:38;;;;;;;1.77;1.47;;;20.50;62.40;;;;;;6171836;23;20463;-68
2023/08/06 00:05:07;;;;;;;2.47;1.53;;;20.50;62.60;;;;;;6171150;23;20934;-68
2023/08/06 00:07:35;;;;;;;1.70;1.43;;;20.50;62.60;;;;;;6169429;23;20946;-68
2023/08/06 00:10:04;;;;;;;1.73;1.40;;;20.50;62.60;;;;;;6170401;23;20409;-69
2023/08/06 00:12:32;;;;;;;1.70;1.40;;;20.50;62.50;;;;;;6168719;23;20954;-68
2023/08/06 00:15:02;;;;;;;1.90;1.40;;;20.50;62.60;;;;;;6171620;23;20431;-68
2023/08/06 00:17:31;;;;;;;1.60;1.10;;;20.50;62.60;;;;;;6170008;23;20439;-68
2023/08/06 00:20:04;;;;;;;1.40;1.10;;;20.50;62.60;;;;;;6144714;23;20887;-69
2023/08/06 00:22:32;;;;;;;1.87;1.20;;;20.50;62.60;;;;;;6171007;22;20932;-68
2023/08/06 00:25:01;;;;;;;1.83;1.33;;;20.50;62.90;;;;;;6171532;23;20412;-68
2023/08/06 00:27:29;;;;;;;1.60;1.30;;;20.50;62.80;;;;;;6169969;23;20750;-68
2023/08/06 00:29:58;;;;;;;1.63;1.40;;;20.50;62.90;;;;;;6171253;23;21020;-68
2023/08/06 00:32:27;;;;;;;2.10;1.50;;;20.50;62.80;;;;;;6169917;23;20428;-68
2023/08/06 00:34:56;;;;;;;1.70;1.40;;;20.50;63.00;;;;;;6169346;23;20921;-68
2023/08/06 00:37:24;;;;;;;1.50;1.10;;;20.50;62.90;;;;;;6170332;23;20971;-69
2023/08/06 00:39:53;;;;;;;2.63;1.50;;;20.50;63.00;;;;;;6172032;23;20847;-68
2023/08/06 00:42:22;;;;;;;1.90;1.20;;;20.50;63.00;;;;;;6169417;23;20430;-68
2023/08/06 00:44:51;;;;;;;1.87;1.30;;;20.50;63.00;;;;;;6171585;23;20419;-68
2023/08/06 00:47:20;;;;;;;1.40;1.13;;;20.40;62.80;;;;;;6170454;23;20486;-68
2023/08/06 00:49:50;;;;;;;1.83;1.30;;;20.40;62.90;;;;;;6170749;23;20394;-68
2023/08/06 00:52:18;;;;;;;1.63;1.07;;;20.40;62.90;;;;;;6169640;23;20460;-68
2023/08/06 00:54:46;;;;;;;1.40;1.10;;;20.40;63.10;;;;;;6146775;23;20783;-68
2023/08/06 00:57:16;;;;;;;2.10;1.50;;;20.40;63.00;;;;;;6170540;23;20486;-68
2023/08/06 00:59:46;;;;;;;1.80;1.47;;;20.40;62.90;;;;;;6170378;23;20414;-68
2023/08/06 01:02:14;;;;;;;1.33;1.07;;;20.40;63.00;;;;;;6169548;23;20467;-68
2023/08/06 01:04:43;;;;;;;1.33;1.17;;;20.40;62.90;;;;;;6170403;23;20421;-68
2023/08/06 01:07:26;;;;;;;1.70;1.30;;;20.40;62.80;;;;;;6170213;23;20774;-68
2023/08/06 01:10:05;;;;;;;1.97;1.20;;;20.40;62.80;;;;;;6170407;23;20726;-68
2023/08/06 01:12:41;;;;;;;2.30;1.10;;;20.40;62.80;;;;;;6168967;23;20774;-69
2023/08/06 01:15:16;;;;;;;1.60;1.30;;;20.40;62.80;;;;;;6170466;23;20478;-69
2023/08/06 01:17:46;;;;;;;2.13;1.40;;;20.40;62.90;;;;;;6169461;23;21054;-69
2023/08/06 01:20:14;;;;;;;1.30;1.00;;;20.40;62.90;;;;;;6169203;23;20447;-69
2023/08/06 01:22:44;;;;;;;1.70;1.40;;;20.40;62.80;;;;;;6168729;23;20436;-69
2023/08/06 01:25:16;;;;;;;1.83;1.13;;;20.40;62.80;;;;;;6170798;23;20792;-69
2023/08/06 01:27:49;;;;;;;1.83;1.37;;;20.40;62.90;;;;;;6169581;23;20440;-69
2023/08/06 01:30:21;;;;;;;1.47;1.23;;;20.40;62.90;;;;;;6172507;23;20501;-69
2023/08/06 01:32:54;;;;;;;1.23;0.93;;;20.40;62.90;;;;;;6171786;23;20408;-69
2023/08/06 01:35:23;;;;;;;1.50;1.20;;;20.40;62.90;;;;;;6170071;23;20790;-69
2023/08/06 01:37:54;;;;;;;1.60;1.40;;;20.40;62.90;;;;;;6170074;23;20735;-69
2023/08/06 01:40:23;;;;;;;1.63;1.10;;;20.40;63.00;;;;;;6171777;23;20389;-68
2023/08/06 01:42:51;;;;;;;1.53;1.10;;;20.40;62.90;;;;;;6169757;23;20414;-69
2023/08/06 01:45:20;;;;;;;1.60;1.10;;;20.40;62.90;;;;;;6170359;23;20515;-69
2023/08/06 01:47:50;;;;;;;2.10;1.20;;;20.40;62.80;;;;;;6170410;23;20938;-69
2023/08/06 01:50:18;;;;;;;2.10;1.20;;;20.40;62.90;;;;;;6170466;23;20404;-69
2023/08/06 01:52:47;;;;;;;1.50;1.10;;;20.40;62.80;;;;;;6169362;23;20440;-69
2023/08/06 01:55:18;;;;;;;1.60;1.13;;;20.40;62.80;;;;;;6170787;23;20439;-69
2023/08/06 01:57:46;;;;;;;1.47;1.13;;;20.40;62.80;;;;;;6168741;23;20820;-69
2023/08/06 02:00:15;;;;;;;1.60;1.30;;;20.40;62.90;;;;;;6169891;23;20399;-69
2023/08/06 02:02:43;;;;;;;1.80;1.00;;;20.40;62.80;;;;;;6174500;22;20830;-69
2023/08/06 02:05:11;;;;;;;1.40;0.90;;;20.40;62.80;;;;;;6173960;23;20417;-69
2023/08/06 02:07:40;;;;;;;1.70;1.40;;;20.40;62.80;;;;;;6174100;23;20434;-69
2023/08/06 02:10:09;;;;;;;1.83;1.33;;;20.40;62.90;;;;;;6173353;23;20490;-69
2023/08/06 02:12:39;;;;;;;1.80;1.40;;;20.40;62.80;;;;;;6174225;22;20448;-68
2023/08/06 02:15:08;;;;;;;1.73;1.50;;;20.40;62.90;;;;;;6174932;23;20747;-68
2023/08/06 02:17:36;;;;;;;1.23;1.07;;;20.40;62.80;;;;;;6173499;23;20550;-69
2023/08/06 02:20:06;;;;;;;1.90;1.07;;;20.40;63.00;;;;;;6173364;23;20401;-68
2023/08/06 02:22:35;;;;;;;2.03;1.30;;;20.30;63.00;;;;;;6171607;23;20584;-68
2023/08/06 02:25:04;;;;;;;1.90;1.50;;;20.40;63.00;;;;;;6176014;23;20417;-68
2023/08/06 02:27:32;;;;;;;1.40;0.97;;;20.30;62.80;;;;;;6173113;23;20949;-68
2023/08/06 02:30:03;;;;;;;1.80;1.20;;;20.40;62.90;;;;;;6173936;23;20685;-68
2023/08/06 02:32:35;;;;;;;2.70;1.07;;;20.30;63.00;;;;;;6174186;22;20783;-68
2023/08/06 02:35:04;;;;;;;1.57;1.17;;;20.30;63.00;;;;;;6174034;23;20412;-68
2023/08/06 02:37:34;;;;;;;1.30;0.93;;;20.30;63.00;;;;;;6172863;23;20454;-68
2023/08/06 02:40:04;;;;;;;1.50;1.30;;;20.30;62.90;;;;;;6174378;23;20400;-68
2023/08/06 02:42:32;;;;;;;1.73;1.20;;;20.30;62.90;;;;;;6173829;22;20436;-68
2023/08/06 02:45:02;;;;;;;1.80;1.10;;;20.30;63.00;;;;;;6175018;23;20477;-68
2023/08/06 02:47:31;;;;;;;1.83;0.93;;;20.30;63.00;;;;;;6174316;23;20461;-68
2023/08/06 02:50:00;;;;;;;1.63;1.20;;;20.30;62.90;;;;;;6173817;23;20388;-68
2023/08/06 02:52:30;;;;;;;1.93;1.13;;;20.30;62.90;;;;;;6172999;23;20508;-68
2023/08/06 02:55:00;;;;;;;1.50;1.10;;;20.30;63.10;;;;;;6174597;23;20424;-68
2023/08/06 02:57:31;;;;;;;1.50;1.10;;;20.30;63.10;;;;;;6173027;23;20960;-68
2023/08/06 02:59:59;;;;;;;1.30;0.80;;;20.30;63.10;;;;;;6174998;23;20451;-68
2023/08/06 03:02:30;;;;;;;1.83;1.30;;;20.30;63.20;;;;;;6171627;23;20440;-68
2023/08/06 03:05:06;;;;;;;1.50;1.17;;;20.20;63.10;;;;;;6171354;23;20412;-68
2023/08/06 03:07:38;;;;;;;1.63;1.17;;;20.30;63.20;;;;;;6170780;23;20467;-68
2023/08/06 03:10:14;;;;;;;1.80;1.47;;;20.20;63.20;;;;;;6169684;23;20401;-68
2023/08/06 03:12:44;;;;;;;1.57;1.30;;;20.30;63.60;;;;;;6168533;23;20442;-68
2023/08/06 03:15:13;;;;;;;1.57;1.20;;;20.20;63.40;;;;;;6169506;23;20423;-68
2023/08/06 03:17:45;;;;;;;1.50;1.10;;;20.20;63.60;;;;;;6169274;22;20801;-68
2023/08/06 03:20:14;;;;;;;1.73;1.47;;;20.20;63.60;;;;;;6169781;23;20436;-68
2023/08/06 03:22:43;;;;;;;2.07;1.20;;;20.20;63.60;;;;;;6168494;23;20460;-68
2023/08/06 03:25:11;;;;;;;1.57;1.10;;;20.20;63.80;;;;;;6171663;23;20424;-68
2023/08/06 03:27:43;;;;;;;1.70;1.20;;;20.20;63.70;;;;;;6168944;23;20432;-68
2023/08/06 03:30:13;;;;;;;2.03;1.00;;;20.20;63.80;;;;;;6167965;23;20847;-68
2023/08/06 03:32:42;;;;;;;1.50;1.20;;;20.20;63.70;;;;;;6170476;23;20464;-68
2023/08/06 03:35:12;;;;;;;1.70;1.40;;;20.20;63.60;;;;;;6172781;23;20415;-68
2023/08/06 03:37:41;;;;;;;1.50;1.27;;;20.20;63.50;;;;;;6173331;22;20440;-68
2023/08/06 03:40:11;;;;;;;1.97;1.50;;;20.20;63.30;;;;;;6172060;23;20376;-68
2023/08/06 03:42:42;;;;;;;1.37;1.13;;;20.20;63.20;;;;;;6169277;23;20433;-68
2023/08/06 03:45:11;;;;;;;1.43;1.20;;;20.20;63.40;;;;;;6172455;23;20435;-68
2023/08/06 03:47:41;;;;;;;1.87;1.03;;;20.20;63.60;;;;;;6170627;23;20425;-68
2023/08/06 03:50:11;;;;;;;1.60;1.20;;;20.20;63.80;;;;;;6146214;22;20496;-68
2023/08/06 03:52:40;;;;;;;1.50;0.97;;;20.20;63.60;;;;;;6168894;23;20756;-68
2023/08/06 03:55:08;;;;;;;1.20;0.93;;;20.20;63.60;;;;;;6171847;23;20917;-68
2023/08/06 03:57:37;;;;;;;1.73;1.13;;;20.20;63.50;;;;;;6170345;23;20828;-68
2023/08/06 04:00:07;;;;;;;1.40;1.20;;;20.20;63.60;;;;;;6172901;23;20457;-69
2023/08/06 04:02:42;;;;;;;1.30;0.80;;;20.20;63.50;;;;;;6171478;22;20436;-68
2023/08/06 04:05:14;;;;;;;1.50;1.13;;;20.20;63.40;;;;;;6170928;23;20421;-68
2023/08/06 04:07:43;;;;;;;1.87;1.13;;;20.20;63.50;;;;;;6171480;23;20485;-69
2023/08/06 04:10:11;;;;;;;1.53;1.10;;;20.20;63.80;;;;;;6172032;23;20375;-69
2023/08/06 04:12:40;;;;;;;2.17;1.27;;;20.20;63.60;;;;;;6170672;22;20433;-68
2023/08/06 04:15:09;;;;;;;1.53;1.03;;;20.20;63.70;;;;;;6168176;23;20491;-68
2023/08/06 04:17:37;;;;;;;1.40;1.00;;;20.20;63.90;;;;;;6169779;23;20931;-68
2023/08/06 04:20:07;;;;;;;1.63;1.10;;;20.20;63.80;;;;;;6172823;23;20784;-69
2023/08/06 04:22:37;;;;;;;1.30;0.83;;;20.20;63.90;;;;;;6169948;23;20438;-69
2023/08/06 04:25:06;;;;;;;1.33;0.77;;;20.20;64.00;;;;;;6172203;23;20891;-69
2023/08/06 04:27:41;;;;;;;1.90;1.23;;;20.20;63.70;;;;;;6169769;23;20994;-68
2023/08/06 04:30:12;;;;;;;1.53;1.23;;;20.20;63.80;;;;;;6171846;23;20866;-69
2023/08/06 04:32:42;;;;;;;1.83;1.10;;;20.20;64.00;;;;;;6170098;23;20781;-68
2023/08/06 04:35:11;;;;;;;2.00;0.90;;;20.20;63.70;;;;;;6170211;23;20473;-69
2023/08/06 04:37:42;;;;;;;1.60;1.07;;;20.10;63.80;;;;;;6170704;23;20455;-69
2023/08/06 04:40:13;;;;;;;1.60;1.07;;;20.20;63.90;;;;;;6171734;23;20382;-68
2023/08/06 04:42:41;;;;;;;1.70;1.20;;;20.20;63.70;;;;;;6169796;23;21014;-68
2023/08/06 04:45:10;;;;;;;1.60;1.20;;;20.10;63.90;;;;;;6173705;23;20751;-69
2023/08/06 04:47:39;;;;;;;1.70;0.90;;;20.10;63.70;;;;;;6171116;23;20927;-69
2023/08/06 04:50:08;;;;;;;1.70;1.20;;;20.10;63.80;;;;;;6171364;23;20444;-69
2023/08/06 04:52:36;;;;;;;2.00;1.10;;;20.10;63.80;;;;;;6171750;22;20490;-69
2023/08/06 04:55:07;;;;;;;1.20;0.87;;;20.10;63.90;;;;;;6171911;23;20416;-69
2023/08/06 04:57:35;;;;;;;1.10;0.80;;;20.10;64.00;;;;;;6170485;23;20456;-69
2023/08/06 05:00:05;;;;;;;1.30;0.90;;;20.10;63.90;;;;;;6147398;22;20405;-68
2023/08/06 05:02:34;;;;;;;2.80;1.23;;;20.10;64.00;;;;;;6170329;23;20685;-69
2023/08/06 05:05:03;;;;;;;1.20;0.90;;;20.10;63.90;;;;;;6170953;23;20519;-69
2023/08/06 05:07:31;;;;;;;1.70;1.20;;;20.10;63.90;;;;;;6170760;23;20447;-69
2023/08/06 05:09:59;;;;;;;1.30;0.90;;;20.10;63.90;;;;;;6172417;23;20390;-69
2023/08/06 05:12:29;;;;;;;1.93;1.10;;;20.10;64.00;;;;;;6168964;23;20628;-69
2023/08/06 05:14:57;;;;;;;1.47;0.80;;;20.10;63.90;;;;;;6171935;23;20436;-69
2023/08/06 05:17:26;;;;;;;2.00;0.90;;;20.10;63.90;;;;;;6169438;23;20449;-69
2023/08/06 05:19:55;;;;;;;1.40;1.03;;;20.10;63.90;;;;;;6170472;23;20764;-69
2023/08/06 05:22:23;;;;;;;1.40;0.90;;;20.10;64.00;;;;;;6168684;23;20516;-69
2023/08/06 05:24:51;;;;;;;1.40;0.90;;;20.10;63.90;;;;;;6171754;23;20409;-68
2023/08/06 05:27:20;;;;;;;1.70;1.13;;;20.10;64.00;;;;;;6169392;23;20440;-68
2023/08/06 05:29:49;;;;;;;1.30;0.90;;;20.10;63.90;;;;;;6173457;23;20393;-68
2023/08/06 05:32:18;;;;;;;1.73;1.20;;;20.10;63.90;;;;;;6169533;23;21038;-69
2023/08/06 05:34:46;;;;;;;1.30;0.90;;;20.10;63.90;;;;;;6170564;23;20536;-69
2023/08/06 05:37:14;;;;;;;2.00;0.90;;;20.10;63.90;;;;;;6170789;23;20451;-69
2023/08/06 05:39:43;;;;;;;1.30;1.10;;;20.10;64.00;;;;;;6172250;23;20401;-69
2023/08/06 05:42:11;;;;;;;1.60;0.93;;;20.10;63.90;;;;;;6170012;23;20673;-69
2023/08/06 05:44:40;;;;;;;1.30;0.80;;;20.10;64.00;;;;;;6170894;23;20504;-69
2023/08/06 05:47:09;;;;;;;1.30;0.70;;;20.00;63.80;;;;;;6171566;22;20444;-69
2023/08/06 05:49:38;;;;;;;1.53;0.90;;;20.00;63.80;;;;;;6170574;23;20401;-69
2023/08/06 05:52:08;;;;;;;1.40;1.00;;;20.00;63.90;;;;;;6168566;23;20433;-69
2023/08/06 05:54:36;;;;;;;2.60;0.83;;;20.00;63.80;;;;;;6171050;23;20469;-69
2023/08/06 05:57:06;;;;;;;2.70;1.13;;;20.00;63.80;;;;;;6170039;23;20983;-69
2023/08/06 05:59:34;;;;;;;1.67;1.17;;;20.00;65.20;;;;;;6172316;23;20423;-69
2023/08/06 06:02:02;;;;;;;2.10;0.87;;;20.00;63.90;;;;;;6167881;23;20919;-69
2023/08/06 06:04:32;;;;;;;1.70;1.23;;;20.00;63.80;;;;;;6170092;23;20417;-69
2023/08/06 06:07:01;;;;;;;2.13;0.90;;;20.00;63.80;;;;;;6171913;22;20917;-73
2023/08/06 06:09:29;;;;;;;1.20;0.90;;;20.00;63.80;;;;;;6171956;23;20389;-73
2023/08/06 06:11:57;;;;;;;1.60;1.00;;;20.00;63.80;;;;;;6169328;23;20433;-73
2023/08/06 06:14:26;;;;;;;1.40;0.80;;;20.00;63.90;;;;;;6173579;23;20389;-73
2023/08/06 06:16:54;;;;;;;4.00;0.80;;;20.00;63.80;;;;;;6171576;22;20434;-73
2023/08/06 06:19:23;;;;;;;1.13;0.80;;;20.00;63.80;;;;;;6169336;23;20433;-73
2023/08/06 06:21:52;;;;;;;1.60;1.03;;;20.00;63.80;;;;;;6167836;23;20433;-73
2023/08/06 06:24:21;;;;;;;2.47;1.30;;;20.00;63.80;;;;;;6171037;23;20412;-73
2023/08/06 06:26:50;;;;;;;1.17;0.80;;;20.00;63.90;;;;;;6170185;23;20437;-73
2023/08/06 06:29:18;;;;;;;1.57;1.00;;;20.00;63.90;;;;;;6170383;23;20392;-73
2023/08/06 06:31:46;;;;;;;2.23;1.20;;;20.00;63.80;;;;;;6169528;23;20469;-73
2023/08/06 06:34:15;;;;;;;2.30;1.00;;;20.00;63.90;;;;;;6171302;23;20378;-73
2023/08/06 06:36:43;;;;;;;1.90;0.93;;;20.00;63.80;;;;;;6170602;23;20447;-73
2023/08/06 06:39:13;;;;;;;1.70;0.90;;;20.00;63.80;;;;;;6172786;23;20421;-73
2023/08/06 06:41:41;;;;;;;1.20;1.00;;;20.00;63.80;;;;;;6171217;23;20432;-73
2023/08/06 06:44:20;;;;;;;2.37;0.70;;;20.00;63.80;;;;;;6171155;23;20424;-73
2023/08/06 06:46:48;;;;;;;1.60;1.17;;;20.00;63.80;;;;;;6170669;23;20440;-73
2023/08/06 06:49:17;;;;;;;1.60;1.10;;;19.90;63.70;;;;;;6171730;23;20420;-73
2023/08/06 06:51:45;;;;;;;1.40;1.00;;;19.90;63.70;;;;;;6169817;23;20429;-73
2023/08/06 06:54:15;;;;;;;1.47;0.90;;;19.90;63.70;;;;;;6171325;23;20398;-73
2023/08/06 06:56:43;;;;;;;1.20;1.00;;;20.00;63.90;;;;;;6170048;23;20448;-73
2023/08/06 06:59:11;;;;;;;1.83;0.90;;;19.90;64.00;;;;;;6170342;23;20428;-73
2023/08/06 07:01:40;;;;;;;2.60;1.30;;;19.90;63.70;;;;;;6170812;23;20458;-72
2023/08/06 07:04:08;;;;;;;1.83;1.07;;;19.90;63.90;;;;;;6170068;23;20396;-71
2023/08/06 07:06:36;;;;;;;1.60;0.93;;;19.90;63.80;;;;;;6169659;23;20432;-72
2023/08/06 07:09:05;;;;;;;1.40;1.00;;;19.90;63.70;;;;;;6170649;23;20737;-72
2023/08/06 07:11:35;;;;;;;2.53;1.10;;;19.90;64.20;;;;;;6169761;23;20393;-72
2023/08/06 07:14:08;;;;;;;2.90;1.30;;;19.90;64.30;;;;;;6172019;23;20723;-73
2023/08/06 07:16:37;;;;;;;1.87;1.30;;;19.90;64.00;;;;;;6171655;23;20390;-73
2023/08/06 07:19:05;;;;;;;4.50;1.10;;;19.90;63.90;;;;;;6171493;23;20431;-73
2023/08/06 07:21:34;;;;;;;1.60;0.87;;;19.90;64.50;;;;;;6169765;23;20439;-73
2023/08/06 07:24:02;;;;;;;1.80;1.10;;;19.90;64.20;;;;;;6170093;23;20503;-73
2023/08/06 07:26:31;;;;;;;1.40;0.70;;;19.90;64.20;;;;;;6171068;23;20731;-73
2023/08/06 07:29:01;;;;;;;1.40;0.87;;;19.90;64.70;;;;;;6170803;23;20385;-73
2023/08/06 07:31:29;;;;;;;1.20;0.63;;;19.90;64.20;;;;;;6171906;23;20886;-73
2023/08/06 07:33:57;;;;;;;1.30;0.90;;;19.90;64.20;;;;;;6168463;23;20754;-73
2023/08/06 07:36:26;;;;;;;1.90;0.97;;;19.90;63.80;;;;;;6144580;22;20451;-73
2023/08/06 07:38:56;;;;;;;1.40;0.80;;;19.90;64.50;;;;;;6171297;23;20449;-73
2023/08/06 07:41:25;;;;;;;1.80;1.33;;;19.90;64.20;;;;;;6171601;23;20394;-73
2023/08/06 07:43:53;;;;;;;1.27;0.73;;;19.90;64.80;;;;;;6169789;23;20426;-73
2023/08/06 07:46:23;;;;;;;2.50;1.43;;;19.90;64.20;;;;;;6171887;23;20479;-73
2023/08/06 07:48:51;;;;;;;2.93;1.30;;;19.90;64.50;;;;;;6169330;23;20418;-73
2023/08/06 07:51:19;;;;;;;1.13;0.80;;;19.90;64.30;;;;;;6168600;23;20443;-73
2023/08/06 07:53:48;;;;;;;1.43;0.90;;;19.90;64.20;;;;;;6169952;23;20410;-73
2023/08/06 07:56:16;;;;;;;1.27;0.77;;;19.90;64.00;;;;;;6170086;23;20415;-73
2023/08/06 07:58:45;;;;;;;1.73;0.90;;;19.90;63.80;;;;;;6170919;23;20429;-73
2023/08/06 08:01:13;;;;;;;1.10;0.80;;;19.90;63.70;;;;;;6169728;23;20432;-73
2023/08/06 08:03:43;;;;;;;1.30;1.03;;;19.90;64.10;;;;;;6169707;23;20456;-73
2023/08/06 08:06:11;;;;;;;1.70;1.20;;;19.90;63.80;;;;;;6168553;23;20476;-73
2023/08/06 08:08:40;;;;;;;1.00;0.60;;;19.90;64.00;;;;;;6170516;23;20405;-73
2023/08/06 08:11:08;;;;;;;1.67;1.10;;;19.90;64.20;;;;;;6171482;23;20436;-73
2023/08/06 08:13:36;;;;;;;1.53;0.70;;;19.90;64.10;;;;;;6168869;23;20407;-73
2023/08/06 08:16:05;;;;;;;2.30;0.93;;;19.90;65.50;;;;;;6171525;23;20924;-73
2023/08/06 08:18:33;;;;;;;1.63;0.93;;;19.80;64.10;;;;;;6172599;23;20473;-73
2023/08/06 08:21:03;;;;;;;1.93;1.10;;;19.80;64.40;;;;;;6171077;23;20440;-73
2023/08/06 08:23:32;;;;;;;1.17;0.80;;;19.80;64.40;;;;;;6171044;23;20388;-73
2023/08/06 08:26:02;;;;;;;1.27;0.70;;;19.80;64.30;;;;;;6171792;23;20485;-73
2023/08/06 08:28:31;;;;;;;1.40;0.80;;;19.80;64.30;;;;;;6170975;23;20885;-73
2023/08/06 08:30:59;;;;;;;2.00;1.00;;;19.80;64.60;;;;;;6171186;23;20444;-73
2023/08/06 08:33:28;;;;;;;1.47;1.03;;;19.80;64.40;;;;;;6168646;23;20816;-73
2023/08/06 08:35:56;;;;;;;1.47;0.87;;;19.80;64.60;;;;;;6172157;23;20438;-73
2023/08/06 08:38:26;;;;;;;1.27;0.70;;;19.80;64.60;;;;;;6173580;23;20400;-73
2023/08/06 08:40:55;;;;;;;1.50;1.10;;;19.80;64.60;;;;;;6168994;23;20916;-73
2023/08/06 08:43:24;;;;;;;1.30;1.07;;;19.80;64.70;;;;;;6170553;23;20395;-73
2023/08/06 08:45:54;;;;;;;1.20;0.70;;;19.80;65.00;;;;;;6171867;23;20433;-73
2023/08/06 08:48:24;;;;;;;1.23;0.83;;;19.80;65.10;;;;;;6172381;23;20374;-73
2023/08/06 08:50:52;;;;;;;1.60;1.10;;;19.80;65.10;;;;;;6173098;23;20442;-73
2023/08/06 08:53:22;;;;;;;2.27;0.80;;;19.80;65.10;;;;;;6170163;23;20395;-73
2023/08/06 08:55:53;;;;;;;1.30;1.03;;;19.80;65.00;;;;;;6172012;23;20432;-73
2023/08/06 08:58:22;;;;;;;2.03;1.20;;;19.80;65.00;;;;;;6171791;23;20376;-73
2023/08/06 09:00:51;;;;;;;1.10;0.70;;;19.70;65.10;;;;;;6172064;23;20424;-73
2023/08/06 09:03:21;;;;;;;1.20;0.77;;;19.70;64.90;;;;;;6167143;23;20865;-73
2023/08/06 09:05:54;;;;;;;2.07;0.90;;;19.70;64.90;;;;;;6158084;23;21036;-73
2023/08/06 09:08:28;;;;;;;2.50;0.60;;;19.70;65.00;;;;;;6172317;23;20372;-73
2023/08/06 09:10:58;;;;;;;1.30;0.60;;;19.70;65.20;;;;;;6171337;23;20383;-73
2023/08/06 09:13:27;;;;;;;1.50;0.90;;;19.70;65.00;;;;;;6170556;23;20393;-72
2023/08/06 09:15:55;;;;;;;1.60;0.70;;;19.70;65.20;;;;;;6170369;23;20497;-72
2023/08/06 09:18:28;;;;;;;1.17;0.77;;;19.70;65.10;;;;;;6171103;23;20406;-73
2023/08/06 09:20:57;;;;;;;1.07;0.60;;;19.70;65.30;;;;;;6173024;23;20436;-73
2023/08/06 09:23:30;;;;;;;2.17;0.90;;;19.70;65.30;;;;;;6170156;23;20387;-72
2023/08/06 09:26:01;;;;;;;1.10;0.83;;;19.70;65.30;;;;;;6168936;23;20500;-72
2023/08/06 09:28:39;;;;;;;1.20;0.80;;;19.70;65.20;;;;;;6171452;23;20426;-73
2023/08/06 09:31:07;;;;;;;1.17;0.77;;;19.70;65.20;;;;;;6171671;23;20384;-73
2023/08/06 09:33:38;;;;;;;1.17;0.70;;;19.70;65.40;;;;;;6168871;23;20396;-73
2023/08/06 09:36:11;;;;;;;1.40;1.13;;;19.70;65.20;;;;;;6170780;23;20445;-72
2023/08/06 09:38:40;;;;;;;1.20;0.77;;;19.70;65.30;;;;;;6170220;23;20481;-73
2023/08/06 09:41:10;;;;;;;1.10;0.70;;;19.70;65.30;;;;;;6171369;23;20425;-73
2023/08/06 09:43:42;;;;;;;1.20;0.80;;;19.60;65.20;;;;;;6170905;23;20391;-73
2023/08/06 09:46:16;;;;;;;1.37;0.70;;;19.60;65.20;;;;;;6172724;23;20970;-73
2023/08/06 09:48:48;;;;;;;1.20;0.87;;;19.60;65.20;;;;;;6173300;23;20372;-73
2023/08/06 09:51:18;;;;;;;2.13;1.20;;;19.60;65.20;;;;;;6171367;23;20378;-73
2023/08/06 09:53:50;;;;;;;1.30;0.90;;;19.60;65.10;;;;;;6173755;23;20842;-73
2023/08/06 09:56:20;;;;;;;1.33;0.80;;;19.60;65.10;;;;;;6171803;23;21298;-73
2023/08/06 09:58:50;;;;;;;2.20;1.07;;;19.60;65.20;;;;;;6170939;23;20429;-73
2023/08/06 10:01:19;;;;;;;1.73;0.93;;;19.70;65.20;;;;;;6171409;23;20440;-73
2023/08/06 10:03:50;;;;;;;1.50;0.90;;;19.60;65.10;;;;;;6170395;23;20376;-73
2023/08/06 10:06:21;;;;;;;1.80;0.73;;;19.60;65.00;;;;;;6172921;23;20416;-73
2023/08/06 10:08:49;;;;;;;1.17;0.70;;;19.60;65.00;;;;;;6169904;23;20392;-73
2023/08/06 10:11:22;;;;;;;1.30;0.90;;;19.60;66.40;;;;;;6172482;23;20698;-73
2023/08/06 10:13:54;;;;;;;1.10;0.70;;;19.60;65.20;;;;;;6171003;23;20372;-73
2023/08/06 10:16:23;;;;;;;1.50;0.70;;;19.60;65.00;;;;;;6171806;23;20430;-73
2023/08/06 10:18:53;;;;;;;1.63;0.80;;;19.60;65.20;;;;;;6172427;23;20400;-73
2023/08/06 10:21:24;;;;;;;1.30;0.73;;;19.60;65.10;;;;;;6172980;23;20431;-73
2023/08/06 10:23:55;;;;;;;1.50;0.80;;;19.60;65.20;;;;;;6172781;23;20371;-73
2023/08/06 10:26:28;;;;;;;2.13;0.87;;;19.60;65.10;;;;;;6169669;23;20445;-73
2023/08/06 10:28:57;;;;;;;2.33;1.07;;;19.60;65.20;;;;;;6170950;23;20389;-73
2023/08/06 10:31:55;;;;;;;1.80;1.00;;;19.60;65.10;;;;;;6171006;23;20799;-73
2023/08/06 10:34:24;;;;;;;1.40;0.97;;;19.60;65.20;;;;;;6170786;23;20427;-73
2023/08/06 10:36:56;;;;;;;1.30;0.67;;;19.60;65.10;;;;;;6171866;23;20800;-73
2023/08/06 10:39:24;;;;;;;1.63;0.70;;;19.60;65.10;;;;;;6171397;23;20378;-73
2023/08/06 10:42:02;;;;;;;1.30;0.70;;;19.60;65.10;;;;;;6169903;23;20807;-73
2023/08/06 10:44:30;;;;;;;1.30;0.90;;;19.60;65.00;;;;;;6170899;23;20708;-73
2023/08/06 10:47:27;;;;;;;1.20;0.60;;;19.50;65.00;;;;;;6169667;23;21020;-73
2023/08/06 10:49:56;;;;;;;1.50;0.80;;;19.50;65.00;;;;;;6170022;23;20383;-73
2023/08/06 10:52:24;;;;;;;2.40;0.90;;;19.60;65.20;;;;;;6169657;23;20432;-73
2023/08/06 10:54:55;;;;;;;1.60;0.90;;;19.50;65.10;;;;;;6170983;23;20500;-73
2023/08/06 10:57:25;;;;;;;1.63;0.90;;;19.60;65.10;;;;;;6170490;23;20444;-73
2023/08/06 10:59:53;;;;;;;2.00;0.93;;;19.50;65.20;;;;;;6172094;23;20773;-73
2023/08/06 11:02:43;;;;;;;1.30;0.80;;;19.50;65.20;;;;;;6170431;23;20438;-73
2023/08/06 11:05:12;;;;;;;1.40;0.90;;;19.50;65.20;;;;;;6170782;23;20447;-73
2023/08/06 11:07:41;;;;;;;1.50;0.90;;;19.60;65.20;;;;;;6169652;23;20430;-73
2023/08/06 11:10:11;;;;;;;2.00;0.83;;;19.50;65.30;;;;;;6171909;23;20412;-73
2023/08/06 11:12:41;;;;;;;4.20;1.10;;;19.50;65.30;;;;;;6169370;23;20821;-73
2023/08/06 11:15:11;;;;;;;1.13;0.60;;;19.50;65.30;;;;;;6170130;23;20435;-73
2023/08/06 11:17:42;;;;;;;1.23;0.67;;;19.50;65.20;;;;;;6169961;23;20519;-73
2023/08/06 11:20:11;;;;;;;1.80;0.80;;;19.50;65.30;;;;;;6168395;23;20436;-73
2023/08/06 11:22:42;;;;;;;1.63;0.77;;;19.50;65.20;;;;;;6170768;22;20437;-73
2023/08/06 11:25:10;;;;;;;3.23;1.27;;;19.50;65.30;;;;;;6170821;23;20535;-73
2023/08/06 11:27:40;;;;;;;3.90;1.00;;;19.50;65.30;;;;;;6169537;23;20442;-73
2023/08/06 11:30:11;;;;;;;1.20;0.63;;;19.50;65.70;;;;;;6172996;23;20701;-74
2023/08/06 11:32:46;;;;;;;1.67;0.90;;;19.50;65.20;;;;;;6169754;23;20481;-73
2023/08/06 11:35:16;;;;;;;1.10;0.70;;;19.50;65.60;;;;;;6169518;23;20440;-73
2023/08/06 11:37:45;;;;;;;1.40;0.70;;;19.50;65.40;;;;;;6169703;23;20436;-73
2023/08/06 11:40:16;;;;;;;1.33;0.80;;;19.50;65.60;;;;;;6170539;23;20411;-73
2023/08/06 11:42:48;;;;;;;2.00;0.80;;;19.50;65.60;;;;;;6168422;23;20832;-73
2023/08/06 11:45:16;;;;;;;1.13;0.70;;;19.50;65.60;;;;;;6170487;23;20931;-73
2023/08/06 11:47:52;;;;;;;1.47;0.60;;;19.50;65.70;;;;;;6169988;23;20933;-73
2023/08/06 11:50:25;;;;;;;1.60;0.80;;;19.50;65.80;;;;;;6170082;23;20561;-73
2023/08/06 11:52:56;;;;;;;1.63;0.90;;;19.50;65.70;;;;;;6170855;23;20954;-73
2023/08/06 11:55:25;;;;;;;3.67;1.07;;;19.50;65.60;;;;;;6171774;23;20423;-73
2023/08/06 11:57:55;;;;;;;1.17;0.63;;;19.50;66.00;;;;;;6170672;23;20783;-73
2023/08/06 12:00:25;;;;;;;1.13;0.63;;;19.50;65.80;;;;;;6172416;23;20376;-73
2023/08/06 12:02:54;;;;;;;2.57;1.00;;;19.50;65.90;;;;;;6171414;23;20451;-73
2023/08/06 12:05:24;;;;;;;2.40;0.87;;;19.50;66.00;;;;;;6171678;23;20442;-73
2023/08/06 12:07:54;;;;;;;2.13;0.63;;;19.40;66.00;;;;;;6171534;23;20447;-73
2023/08/06 12:10:23;;;;;;;1.30;0.73;;;19.40;66.30;;;;;;6172211;23;20385;-73
2023/08/06 12:12:52;;;;;;;1.47;1.00;;;19.40;66.30;;;;;;6171164;23;20442;-73
2023/08/06 12:15:22;;;;;;;2.33;1.13;;;19.40;66.30;;;;;;6171881;23;20790;-73
2023/08/06 12:17:51;;;;;;;2.27;0.90;;;19.40;66.30;;;;;;6170681;23;20844;-73
2023/08/06 12:20:19;;;;;;;1.30;0.80;;;19.40;66.40;;;;;;6172504;23;20948;-73
2023/08/06 12:22:48;;;;;;;1.50;0.90;;;19.40;66.30;;;;;;6169787;23;20448;-73
2023/08/06 12:25:16;;;;;;;1.60;0.90;;;19.40;66.40;;;;;;6172398;23;20428;-73
2023/08/06 12:27:46;;;;;;;1.70;0.77;;;19.40;66.80;;;;;;6170739;22;20427;-73
2023/08/06 12:30:14;;;;;;;1.27;0.70;;;19.40;67.20;;;;;;6171473;23;20731;-73
2023/08/06 12:32:44;;;;;;;1.43;0.97;;;19.40;66.90;;;;;;6170426;23;20439;-73
2023/08/06 12:35:14;;;;;;;1.30;0.80;;;19.40;66.90;;;;;;6171040;23;20411;-73
2023/08/06 12:37:43;;;;;;;1.30;0.60;;;19.40;66.90;;;;;;6171528;23;20818;-73
2023/08/06 12:40:12;;;;;;;1.20;0.70;;;19.40;66.90;;;;;;6170211;23;20873;-73
2023/08/06 12:42:43;;;;;;;2.37;0.80;;;19.40;66.90;;;;;;6169508;23;20466;-73
2023/08/06 12:45:11;;;;;;;1.17;0.80;;;19.40;66.70;;;;;;6172490;23;20430;-73
2023/08/06 12:47:40;;;;;;;1.60;0.70;;;19.40;67.20;;;;;;6171099;23;20443;-73
2023/08/06 12:50:10;;;;;;;3.00;0.87;;;19.40;67.10;;;;;;6171360;23;20397;-73
2023/08/06 12:52:39;;;;;;;2.00;0.97;;;19.40;67.10;;;;;;6171801;23;20447;-73
2023/08/06 12:55:08;;;;;;;1.10;0.60;;;19.40;67.00;;;;;;6171209;23;20422;-73
2023/08/06 12:57:36;;;;;;;2.07;0.80;;;19.40;67.00;;;;;;6170653;23;20433;-73
2023/08/06 13:00:24;;;;;;;2.03;0.70;;;19.40;66.70;;;;;;6173063;23;20643;-73